Latest Weather Observations for Kadina

IDS60801

Issued at 8:31 am CDT Tuesday 6 December 2022 (issued every 10 minutes, with the page automatically refreshed every 10 minutes)

About weather observations | Map of weather stations | Latest weather observations for SA | Other Formats
Station Details ID: 022050 Name: KADINA AWS Lat: -33.97 Lon: 137.66 Height: 41.14 m
Data from the previous 72 hours. | See also: Recent months at Kadina
Date/Time
CDT
Temp
°C
App
Temp
°C
Dew
Point
°C
Rel
Hum
%
Delta-T
°C
Wind Press
QNH
hPa
Press
MSL
hPa
Rain since
9am
mm
Dir  Spd
km/h
Gust
km/h
Spd
kts
Gust
kts
06/08:30am 16.6 11.7 6.7 52 4.9 ESE 22 28 12 15 1011.2 1011.0 0.0
06/08:00am 15.7 9.0 7.2 57 4.2 ESE 32 41 17 22 1010.1 1009.9 0.0
06/07:30am 15.0 9.0 7.1 59 3.9 ESE 28 35 15 19 1009.9 1009.7 0.0
06/07:00am 13.9 8.4 7.4 65 3.2 ESE 26 35 14 19 1010.6 1010.4 0.0
06/06:30am 13.4 7.9 7.6 68 2.9 ESE 26 33 14 18 1010.7 1010.5 0.0
06/06:00am 12.9 8.2 7.8 71 2.5 ESE 22 30 12 16 1010.2 1010.0 0.0
06/05:30am 12.9 7.9 8.2 73 2.3 ESE 24 32 13 17 1010.1 1009.9 0.0
06/05:00am 12.6 7.7 8.5 76 2.0 ESE 24 33 13 18 1010.3 1010.1 0.0
06/04:30am 12.6 7.4 8.7 77 2.0 ESE 26 33 14 18 1010.7 1010.5 0.0
06/04:00am 13.0 7.8 8.7 75 2.2 ESE 26 37 14 20 1010.6 1010.4 0.0
06/03:30am 13.6 7.9 8.4 71 2.6 ESE 28 35 15 19 1011.1 1010.9 0.0
06/03:00am 14.2 7.8 8.4 68 2.9 ESE 32 41 17 22 1010.9 1010.7 0.0
06/02:30am 14.2 8.6 8.6 69 2.8 ESE 28 35 15 19 1011.7 1011.5 0.0
06/02:00am 14.2 8.6 8.6 69 2.8 ESE 28 35 15 19 1011.9 1011.7 0.0
06/01:30am 14.4 9.1 8.6 68 2.9 ESE 26 35 14 19 1012.3 1012.1 0.0
06/01:00am 14.5 9.6 8.5 67 3.0 ESE 24 33 13 18 1012.6 1012.4 0.0
06/12:30am 14.3 9.2 9.3 72 2.6 ESE 26 32 14 17 1012.9 1012.7 0.0
06/12:00am 14.5 9.2 9.9 74 2.4 ESE 28 35 15 19 1013.6 1013.5 0.0
 
Date/Time
CDT
Temp
°C
App
Temp
°C
Dew
Point
°C
Rel
Hum
%
Delta-T
°C
Wind Press
QNH
hPa
Press
MSL
hPa
Rain since
9am
mm
Dir  Spd
km/h
Gust
km/h
Spd
kts
Gust
kts
05/11:30pm 15.0 9.4 10.0 72 2.6 SE 30 41 16 22 1014.1 1014.0 0.0
05/11:00pm 15.4 9.2 9.5 68 3.1 SE 32 43 17 23 1014.2 1014.1 0.0
05/10:30pm 15.7 9.3 9.4 66 3.3 SE 33 44 18 24 1014.4 1014.3 0.0
05/10:00pm 15.8 10.0 9.5 66 3.3 SE 30 39 16 21 1014.8 1014.7 0.0
05/09:30pm 15.9 10.4 9.3 65 3.4 SE 28 39 15 21 1014.6 1014.5 0.0
05/09:00pm 16.0 10.5 9.0 63 3.6 SSE 28 39 15 21 1014.3 1014.2 0.0
05/08:30pm 16.4 10.1 9.1 62 3.8 SSE 32 43 17 23 1013.8 1013.7 0.0
05/08:00pm 17.1 10.6 8.8 58 4.3 SSE 33 44 18 24 1013.5 1013.4 0.0
05/07:30pm 17.7 10.9 9.3 58 4.4 SE 35 46 19 25 1013.5 1013.4 0.0
05/07:00pm 18.5 11.9 8.7 53 5.1 SSE 33 44 18 24 1013.5 1013.4 0.0
05/06:30pm 19.7 13.8 9.0 50 5.6 SSE 30 44 16 24 1013.4 1013.3 0.0
05/06:00pm 21.8 15.5 9.0 44 6.8 SSE 32 44 17 24 1013.3 1013.2 0.0
05/05:30pm 22.2 17.0 8.7 42 7.2 SE 26 35 14 19 1013.8 1013.7 0.0
05/05:00pm 22.8 17.1 8.5 40 7.6 SE 28 37 15 20 1013.7 1013.6 0.0
05/04:30pm 24.3 18.8 7.4 34 8.9 SE 26 41 14 22 1013.8 1013.7 0.0
05/04:00pm 23.9 18.1 6.2 32 9.1 SE 26 35 14 19 1014.0 1013.9 0.0
05/03:52pm 24.4 18.4 7.1 33 9.0 SE 28 50 15 27 1014.1 1014.0 0.0
05/03:30pm 24.0 18.8 7.2 34 8.8 SE 24 41 13 22 1014.4 1014.3 0.0
05/03:00pm 23.3 18.3 6.6 34 8.6 SSE 22 35 12 19 1015.0 1014.9 0.0
05/02:30pm 23.7 19.4 6.9 34 8.7 SSE 19 39 10 21 1015.1 1015.0 0.0
05/02:00pm 22.9 17.5 8.2 39 7.8 S 26 37 14 20 1016.1 1016.0 0.0
05/01:30pm 23.4 18.5 8.3 38 8.0 SE 24 37 13 20 1016.2 1016.1 0.0
05/01:00pm 23.2 18.9 7.7 37 8.1 SE 20 32 11 17 1016.4 1016.3 0.0
05/12:30pm 22.9 17.9 8.2 39 7.8 S 24 35 13 19 1016.5 1016.4 0.0
05/12:00pm 22.0 16.1 8.9 43 7.0 SSE 30 43 16 23 1015.5 1015.4 0.0
05/11:30am 21.7 15.4 8.9 44 6.8 SSE 32 44 17 24 1015.5 1015.4 0.0
05/11:00am 21.6 16.2 9.5 46 6.5 SE 28 43 15 23 1015.6 1015.5 0.0
05/10:30am 20.9 14.7 9.5 48 6.1 SE 32 44 17 24 1015.6 1015.5 0.0
05/10:00am 21.0 15.4 8.9 46 6.4 SE 28 39 15 21 1015.6 1015.5 0.0
05/09:30am 19.4 13.4 8.7 50 5.6 SSE 30 39 16 21 1015.8 1015.7 0.0
05/09:00am 19.3 13.1 9.2 52 5.3 SE 32 44 17 24 1015.5 1015.4 0.0
05/08:30am 18.1 12.6 10.7 62 4.0 SSE 30 39 16 21 1015.2 1015.1 0.0
05/08:00am 18.4 14.2 11.0 62 4.0 SSE 24 35 13 19 1015.2 1015.1 0.0
05/07:30am 16.6 12.7 10.9 69 3.1 S 22 28 12 15 1014.9 1014.8 0.0
05/07:00am 15.5 13.0 10.9 74 2.5 S 15 22 8 12 1014.6 1014.5 0.0
05/06:30am 14.7 12.5 10.7 77 2.1 S 13 17 7 9 1014.7 1014.6 0.0
05/06:00am 15.1 12.1 10.7 75 2.3 SSW 17 20 9 11 1014.8 1014.7 0.0
05/05:30am 15.1 12.2 10.9 76 2.2 SSE 17 22 9 12 1013.9 1013.8 0.0
05/05:00am 15.2 11.9 11.0 76 2.2 SSE 19 26 10 14 1014.2 1014.1 0.0
05/04:30am 15.0 13.3 11.2 78 2.0 S 11 15 6 8 1014.5 1014.4 0.0
05/04:00am 15.4 13.3 11.2 76 2.2 S 13 17 7 9 1014.4 1014.3 0.0
05/03:30am 15.5 13.4 11.3 76 2.3 SSW 13 17 7 9 1014.6 1014.5 0.0
05/03:00am 15.9 13.8 11.3 74 2.5 SSW 13 17 7 9 1014.8 1014.7 0.0
05/02:30am 16.2 13.9 11.8 75 2.4 SSW 15 20 8 11 1015.1 1015.0 0.0
05/02:00am 16.3 14.0 11.9 75 2.4 SSW 15 22 8 12 1015.0 1014.9 0.0
05/01:30am 16.3 14.0 11.9 75 2.4 SSE 15 22 8 12 1014.3 1014.2 0.0
05/01:00am 16.5 14.3 12.1 75 2.4 SE 15 20 8 11 1014.4 1014.3 0.0
05/12:30am 17.0 14.1 12.3 74 2.6 SSE 19 28 10 15 1015.4 1015.3 0.0
05/12:00am 17.3 14.5 12.6 74 2.6 S 19 26 10 14 1015.8 1015.7 0.0
 
Date/Time
CDT
Temp
°C
App
Temp
°C
Dew
Point
°C
Rel
Hum
%
Delta-T
°C
Wind Press
QNH
hPa
Press
MSL
hPa
Rain since
9am
mm
Dir  Spd
km/h
Gust
km/h
Spd
kts
Gust
kts
04/11:30pm 17.4 15.8 12.9 75 2.5 SSE 13 19 7 10 1015.5 1015.4 0.0
04/11:00pm 17.5 14.6 12.8 74 2.6 S 20 28 11 15 1015.4 1015.3 0.0
04/10:30pm 18.0 15.1 12.9 72 2.9 S 20 28 11 15 1015.9 1015.8 0.0
04/10:00pm 18.7 14.8 13.3 71 3.1 S 26 37 14 20 1014.6 1014.5 0.0
04/09:30pm 19.5 15.5 14.1 71 3.1 SSW 28 39 15 21 1014.4 1014.3 0.0
04/09:00pm 18.8 14.8 15.3 80 2.1 SW 30 39 16 21 1013.6 1013.5 0.0
04/08:30pm 18.7 15.8 15.0 79 2.2 SSW 24 33 13 18 1012.7 1012.5 0.0
04/08:00pm 19.0 15.0 15.1 78 2.3 SSW 30 39 16 21 1012.3 1012.1 0.0
04/07:30pm 19.4 15.7 14.9 75 2.6 SW 28 39 15 21 1011.7 1011.5 0.0
04/07:00pm 20.3 15.6 14.9 71 3.2 SW 33 44 18 24 1011.5 1011.3 0.0
04/06:30pm 20.3 15.7 15.1 72 3.1 SW 33 48 18 26 1011.0 1010.8 0.0
04/06:00pm 20.3 15.5 15.5 74 2.9 SW 35 46 19 25 1010.5 1010.3 0.0
04/05:30pm 23.8 19.5 15.3 59 5.1 SW 32 46 17 25 1009.9 1009.7 0.0
04/05:00pm 26.1 19.8 13.6 46 7.4 SW 39 54 21 29 1009.3 1009.1 0.0
04/04:46pm 28.7 20.5 6.7 25 11.7 SW 39 57 21 31 1009.1 1008.9 0.0
04/04:30pm 30.5 23.5 8.3 25 12.3 SW 35 52 19 28 1009.1 1008.9 0.0
04/04:00pm 34.4 29.3 7.5 19 14.9 SSW 24 35 13 19 1008.7 1008.5 0.0
04/03:30pm 32.9 27.6 7.0 20 14.2 WSW 24 35 13 19 1008.9 1008.7 0.0
04/03:00pm 36.6 30.8 0.1 10 18.3 WNW 20 26 11 14 1008.8 1008.6 0.0
04/02:30pm 36.5 31.7 0.0 10 18.3 NW 15 26 8 14 1009.0 1008.8 0.0
04/02:00pm 36.5 31.3 0.0 10 18.2 NW 17 28 9 15 1009.0 1008.8 0.0
04/01:30pm 36.3 30.7 -0.2 10 18.2 NW 19 30 10 16 1009.6 1009.4 0.0
04/01:00pm 36.3 29.9 1.2 11 17.8 NNW 24 32 13 17 1010.0 1009.8 0.0
04/12:30pm 36.5 30.0 2.5 12 17.7 NNW 26 39 14 21 1010.3 1010.1 0.0
04/12:00pm 35.7 28.9 3.0 13 17.1 N 28 37 15 20 1010.5 1010.3 0.0
04/11:30am 34.3 28.4 4.0 15 15.9 N 24 33 13 18 1010.8 1010.6 0.0
04/11:00am 33.0 26.7 3.9 16 15.1 N 26 39 14 21 1011.0 1010.8 0.0
04/10:30am 32.2 25.4 3.2 16 14.9 N 28 33 15 18 1011.2 1011.0 0.0
04/10:00am 31.6 25.4 4.4 18 14.2 N 26 33 14 18 1011.3 1011.1 0.0
04/09:30am 30.5 23.9 4.3 19 13.5 N 28 35 15 19 1011.4 1011.2 0.0
04/09:00am 29.9 24.1 4.5 20 13.1 N 24 33 13 18 1011.4 1011.2 0.0
04/08:30am 29.3 23.0 4.0 20 12.9 N 26 33 14 18 1011.2 1011.0 0.0
04/08:00am 27.5 22.6 5.1 24 11.5 NNE 20 24 11 13 1010.9 1010.7 0.0
04/07:30am 23.7 20.0 4.6 29 9.5 NE 13 17 7 9 1010.8 1010.6 0.0
04/07:00am 19.9 17.1 5.2 38 7.2 NE 9 13 5 7 1010.5 1010.3 0.0
04/06:30am 15.8 12.6 5.1 49 5.1 ENE 11 13 6 7 1009.9 1009.7 0.0
04/06:00am 15.1 10.7 5.0 51 4.8 ENE 17 19 9 10 1009.4 1009.2 0.0
04/05:30am 13.3 9.7 5.0 57 3.9 ENE 13 15 7 8 1009.5 1009.3 0.0
04/05:00am 13.7 9.0 5.3 57 3.9 ENE 19 20 10 11 1009.2 1009.0 0.0
04/04:30am 12.9 9.4 5.3 60 3.5 E 13 13 7 7 1009.3 1009.1 0.0
04/04:00am 14.4 10.5 5.2 54 4.3 ESE 15 17 8 9 1009.3 1009.1 0.0
04/03:30am 13.9 10.1 5.8 58 3.9 ESE 15 17 8 9 1009.4 1009.2 0.0
04/03:00am 14.8 11.1 6.4 57 4.1 ESE 15 17 8 9 1009.6 1009.4 0.0
04/02:30am 14.8 11.5 6.4 57 4.1 ESE 13 15 7 8 1009.9 1009.7 0.0
04/02:00am 16.2 12.6 6.6 53 4.7 ESE 15 15 8 8 1010.2 1010.0 0.0
04/01:30am 15.5 12.1 7.5 59 4.0 ESE 15 17 8 9 1010.5 1010.3 0.0
04/01:00am 15.8 11.8 6.8 55 4.4 ESE 17 19 9 10 1010.9 1010.7 0.0
04/12:30am 17.6 13.8 7.4 51 5.1 ESE 17 20 9 11 1011.4 1011.2 0.0
04/12:00am 16.9 13.0 7.3 53 4.8 E 17 17 9 9 1011.5 1011.3 0.0
 
Date/Time
CDT
Temp
°C
App
Temp
°C
Dew
Point
°C
Rel
Hum
%
Delta-T
°C
Wind Press
QNH
hPa
Press
MSL
hPa
Rain since
9am
mm
Dir  Spd
km/h
Gust
km/h
Spd
kts
Gust
kts
03/11:30pm 17.1 13.5 6.9 51 5.1 ESE 15 17 8 9 1011.7 1011.5 0.0
03/11:00pm 18.5 14.6 7.3 48 5.7 ESE 17 20 9 11 1011.8 1011.6 0.0
03/10:30pm 20.3 16.3 6.6 41 6.9 ESE 17 20 9 11 1011.7 1011.5 0.0
03/10:00pm 21.5 16.7 4.6 33 8.3 ESE 19 22 10 12 1011.6 1011.4 0.0
03/09:30pm 21.7 16.8 1.9 27 9.2 SE 17 20 9 11 1011.2 1011.0 0.0
03/09:00pm 24.0 18.8 0.4 21 10.9 ESE 17 20 9 11 1010.8 1010.6 0.0
03/08:30pm 26.5 20.9 1.0 19 12.1 ESE 20 26 11 14 1010.5 1010.3 0.0
03/08:00pm 29.0 23.1 1.5 17 13.4 ESE 22 30 12 16 1010.4 1010.2 0.0
03/07:30pm 31.0 23.9 1.4 15 14.6 ESE 28 39 15 21 1010.1 1009.9 0.0
03/07:00pm 32.7 25.5 0.7 13 15.8 SE 28 39 15 21 1009.9 1009.7 0.0
03/06:30pm 34.5 29.5 -1.5 10 17.3 SSE 15 24 8 13 1009.9 1009.7 0.0
03/06:00pm 34.7 30.3 -2.8 9 17.7 SE 11 15 6 8 1009.9 1009.7 0.0
03/05:30pm 34.8 30.9 -4.3 8 18.0 NW 7 11 4 6 1010.0 1009.8 0.0
03/05:00pm 34.7 30.4 -4.4 8 18.0 SW 9 17 5 9 1010.2 1010.0 0.0
03/04:30pm 34.9 29.9 -8.0 6 18.6 WSW 11 17 6 9 1010.4 1010.2 0.0
03/04:00pm 34.8 29.4 -1.3 10 17.5 WSW 17 28 9 15 1010.6 1010.4 0.0
03/03:30pm 34.5 29.3 -0.2 11 17.1 WNW 17 32 9 17 1010.7 1010.5 0.0
03/03:00pm 33.7 29.5 -0.8 11 16.7 NE 11 24 6 13 1011.1 1010.9 0.0
03/02:30pm 34.0 28.9 0.6 12 16.6 WNW 17 26 9 14 1011.4 1011.2 0.0
03/02:00pm 32.9 28.0 -0.2 12 16.1 W 15 22 8 12 1011.7 1011.5 0.0
03/01:30pm 33.6 28.1 0.3 12 16.4 WNW 19 30 10 16 1012.0 1011.8 0.0
03/01:00pm 33.2 27.9 2.1 14 15.7 NNW 19 28 10 15 1012.3 1012.1 0.0
03/12:30pm 32.9 26.3 1.9 14 15.6 N 26 33 14 18 1012.6 1012.4 0.0
03/12:00pm 32.0 25.8 2.1 15 15.0 N 24 37 13 20 1012.8 1012.6 0.0
03/11:30am 32.0 25.8 2.1 15 15.0 N 24 32 13 17 1013.1 1013.0 0.0
03/11:00am 31.4 25.3 2.6 16 14.5 N 24 32 13 17 1013.2 1013.1 0.0
03/10:30am 31.1 24.9 2.3 16 14.4 N 24 33 13 18 1013.1 1013.0 0.0
03/10:00am 30.2 25.0 2.5 17 13.8 N 19 26 10 14 1013.3 1013.2 0.0
03/09:30am 28.4 23.8 1.8 18 13.0 N 15 20 8 11 1013.4 1013.3 0.0
03/09:00am 27.3 23.0 3.1 21 12.0 NNE 15 19 8 10 1013.4 1013.3 0.0

Other formats

Comma delimited format used in spreadsheet applications
http://www.bom.gov.au/fwo/IDS60801/IDS60801.94685.axf

JavaScript Object Notation format (JSON) in row-major order
http://www.bom.gov.au/fwo/IDS60801/IDS60801.94685.json

Data quality

Most of these data are generated automatically and are frequently updated. Quality checks on data are not normally performed. It is possible for incorrect values to appear. Refer to information at About Latest Weather Observations and please check the disclaimer before using these data.